Terminal Aerodrome Forecast
Issued by NWS

Home | Current Version | Previous Version | Text Only | Print | Product List | Glossary On
Versions: 1 2 3 4 5 6 7 8 9 10 11 12 13 14
258
FTUS46 KPDT 300533
TAFALW
TAF
KALW 300533Z 3006/0106 19010KT P6SM FEW060 BKN100
     FM300900 17008KT P6SM SCT100 BKN200
     FM301700 21005KT P6SM FEW100 FEW200
     FM302100 24010G16KT P6SM SCT100 BKN200
     FM010300 18008KT P6SM VCSH SCT090 BKN120=

USA.gov is the U.S. government's official web portal to all federal, state and local government web resources and services.